createdAt,value
2018-06-18T14:46:11.113Z,1014.42
2018-06-18T14:47:10.972Z,1014.38
2018-06-18T14:48:11.804Z,1014.30
2018-06-18T14:49:12.514Z,1014.35
2018-06-18T14:50:11.720Z,1014.33
2018-06-18T14:51:11.350Z,1014.37
2018-06-18T14:52:10.820Z,1014.36
2018-06-18T14:53:11.051Z,1014.40
2018-06-18T14:54:12.291Z,1014.40
2018-06-18T14:55:10.707Z,1014.40
2018-06-18T14:56:10.652Z,1014.33
2018-06-18T14:57:12.523Z,1014.34
2018-06-18T14:58:10.565Z,1014.33
2018-06-18T14:59:10.578Z,1014.28
2018-06-18T15:00:10.486Z,1014.32
2018-06-18T15:01:10.466Z,1014.25
2018-06-18T15:02:10.405Z,1014.28
2018-06-18T15:03:10.327Z,1014.27
2018-06-18T15:04:10.681Z,1014.26
2018-06-18T15:05:10.324Z,1014.27
2018-06-18T15:06:10.223Z,1014.29
2018-06-18T15:07:10.353Z,1014.28
2018-06-18T15:08:10.154Z,1014.29
2018-06-18T15:09:10.108Z,1014.27
2018-06-18T15:10:10.522Z,1014.27
2018-06-18T15:11:10.068Z,1014.27
2018-06-18T15:12:10.210Z,1014.30
2018-06-18T15:13:10.138Z,1014.29
2018-06-18T15:14:09.960Z,1014.23
2018-06-18T15:15:09.882Z,1014.20
2018-06-18T15:16:09.773Z,1014.18
2018-06-18T15:17:09.770Z,1014.22
2018-06-18T15:18:09.585Z,1014.17
2018-06-18T15:19:09.668Z,1014.18
2018-06-18T15:20:09.504Z,1014.21
2018-06-18T15:21:09.542Z,1014.20
2018-06-18T15:22:09.613Z,1014.19
2018-06-18T15:23:09.484Z,1014.18
2018-06-18T15:24:09.577Z,1014.22
2018-06-18T15:25:09.474Z,1014.17
2018-06-18T15:26:09.387Z,1014.17
2018-06-18T15:27:09.212Z,1014.19
2018-06-18T15:28:09.116Z,1014.16
2018-06-18T15:29:09.095Z,1014.13
2018-06-18T15:30:09.226Z,1014.08
2018-06-18T15:31:09.210Z,1014.08
2018-06-18T15:32:09.039Z,1014.08
2018-06-18T15:33:09.121Z,1014.09
2018-06-18T15:34:08.904Z,1014.08
2018-06-18T15:35:08.857Z,1014.11
2018-06-18T15:36:08.839Z,1014.05
2018-06-18T15:37:08.885Z,1014.09
2018-06-18T15:38:08.769Z,1014.06
2018-06-18T15:39:08.726Z,1014.06
2018-06-18T15:40:08.737Z,1014.08
2018-06-18T15:41:08.716Z,1014.03
2018-06-18T15:42:08.765Z,1014.05
2018-06-18T15:43:08.545Z,1014.00
2018-06-18T15:44:08.656Z,1014.02
2018-06-18T15:45:08.461Z,1013.99
2018-06-18T15:46:08.860Z,1014.02
2018-06-18T15:47:08.408Z,1014.04
2018-06-18T15:48:08.527Z,1014.06
2018-06-18T15:49:08.490Z,1014.06
2018-06-18T15:50:08.768Z,1014.02
2018-06-18T15:51:08.235Z,1013.98
2018-06-18T15:52:08.162Z,1014.01
2018-06-18T15:53:08.125Z,1013.97
2018-06-18T15:54:08.966Z,1013.99
